Time;durP1;ratioP1;P1;durP2;ratioP2;P2;SDS_P1;SDS_P2;PMS_P1;PMS_P2;Temp;Humidity;BMP_temperature;BMP_pressure;BME280_temperature;BME280_humidity;BME280_pressure;Samples;Min_cycle;Max_cycle;Signal;HPM_P1;HPM_P2
2022/08/02 00:01:33;;;;;;;6.73;2.80;;;11.90;99.90;;;;;;5027523;28;20067;-79
2022/08/02 00:03:59;;;;;;;6.40;2.93;;;11.80;99.90;;;;;;5048635;28;20044;-78
2022/08/02 00:06:25;;;;;;;6.90;3.10;;;11.80;99.90;;;;;;5048908;28;20049;-78
2022/08/02 00:08:52;;;;;;;8.17;2.67;;;11.80;99.90;;;;;;5025436;28;20040;-78
2022/08/02 00:11:19;;;;;;;8.07;3.17;;;11.80;99.90;;;;;;5033171;28;20048;-78
2022/08/02 00:13:45;;;;;;;6.13;2.83;;;11.90;99.90;;;;;;5031634;28;20663;-78
2022/08/02 00:16:11;;;;;;;7.70;3.20;;;11.90;99.90;;;;;;5033235;28;20037;-77
2022/08/02 00:18:37;;;;;;;12.70;3.53;;;11.90;99.90;;;;;;5039789;28;20510;-78
2022/08/02 00:21:03;;;;;;;9.63;3.60;;;11.90;99.90;;;;;;5013602;28;20044;-78
2022/08/02 00:23:28;;;;;;;9.10;3.10;;;11.90;99.90;;;;;;5035935;28;20048;-78
2022/08/02 00:25:54;;;;;;;9.67;4.03;;;11.90;99.90;;;;;;5032204;28;20037;-79
2022/08/02 00:28:21;;;;;;;7.33;3.40;;;11.90;99.90;;;;;;5048727;28;20041;-80
2022/08/02 00:30:47;;;;;;;7.33;3.17;;;11.90;99.90;;;;;;5027518;28;20488;-78
2022/08/02 00:33:13;;;;;;;7.73;3.23;;;11.90;99.90;;;;;;5014599;28;20055;-78
2022/08/02 00:35:38;;;;;;;7.40;3.63;;;11.90;99.90;;;;;;5029389;28;20050;-78
2022/08/02 00:38:04;;;;;;;9.00;3.60;;;11.90;99.90;;;;;;5047999;28;20071;-78
2022/08/02 00:40:30;;;;;;;8.90;4.40;;;12.00;99.90;;;;;;5035137;28;20123;-78
2022/08/02 00:43:00;;;;;;;9.87;3.87;;;12.00;99.90;;;;;;5018905;28;20689;-78
2022/08/02 00:45:28;;;;;;;12.57;4.00;;;11.90;99.90;;;;;;5052877;28;20044;-79
2022/08/02 00:47:53;;;;;;;5.33;2.93;;;11.90;99.90;;;;;;5036517;28;20061;-78
2022/08/02 00:50:19;;;;;;;7.93;3.30;;;11.90;99.90;;;;;;5033137;28;20057;-78
2022/08/02 00:52:45;;;;;;;10.67;3.90;;;11.90;99.90;;;;;;5032104;28;20059;-78
2022/08/02 00:55:11;;;;;;;9.43;3.53;;;11.90;99.90;;;;;;5034136;28;20041;-78
2022/08/02 00:57:37;;;;;;;6.70;2.87;;;11.90;99.90;;;;;;5052796;28;20099;-78
2022/08/02 01:00:05;;;;;;;8.57;3.30;;;11.90;99.90;;;;;;5051024;28;20068;-78
2022/08/02 01:02:32;;;;;;;13.50;3.93;;;11.80;99.90;;;;;;5053469;28;20076;-78
2022/08/02 01:04:58;;;;;;;13.77;3.93;;;11.80;99.90;;;;;;5016973;28;20053;-78
2022/08/02 01:07:24;;;;;;;5.83;3.20;;;11.80;99.90;;;;;;5052803;28;20401;-78
2022/08/02 01:09:49;;;;;;;6.33;3.40;;;11.80;99.90;;;;;;5052301;28;20041;-78
2022/08/02 01:12:15;;;;;;;8.73;3.00;;;11.70;99.90;;;;;;5020092;28;20131;-79
2022/08/02 01:14:42;;;;;;;5.87;2.60;;;11.60;99.90;;;;;;5050981;28;20048;-78
2022/08/02 01:17:14;;;;;;;11.43;3.70;;;11.60;99.90;;;;;;5050715;28;20045;-78
2022/08/02 01:19:47;;;;;;;12.63;4.40;;;11.60;99.90;;;;;;5033027;28;20056;-78
2022/08/02 01:22:36;;;;;;;9.95;3.78;;;11.60;99.90;;;;;;5050540;28;20064;-79
2022/08/02 01:25:13;;;;;;;8.80;3.40;;;11.60;99.90;;;;;;5051728;28;20438;-79
2022/08/02 01:27:51;;;;;;;10.37;4.10;;;11.50;99.90;;;;;;5050154;28;20043;-78
2022/08/02 01:30:19;;;;;;;9.63;4.13;;;11.50;99.90;;;;;;5051906;28;20045;-77
2022/08/02 01:32:52;;;;;;;10.73;3.63;;;11.50;99.90;;;;;;5030212;28;20049;-79
2022/08/02 01:35:23;;;;;;;8.13;3.22;;;11.50;99.90;;;;;;5048832;28;20043;-78
2022/08/02 01:37:55;;;;;;;11.53;3.73;;;11.50;99.90;;;;;;5015837;28;20045;-78
2022/08/02 01:40:24;;;;;;;8.07;3.50;;;11.50;99.90;;;;;;5051369;28;20041;-78
2022/08/02 01:42:54;;;;;;;8.77;3.83;;;11.40;99.90;;;;;;5050232;28;20102;-79
2022/08/02 01:45:23;;;;;;;9.13;3.80;;;11.40;99.90;;;;;;5035354;28;20088;-78
2022/08/02 01:47:51;;;;;;;10.13;4.07;;;11.40;99.90;;;;;;5051317;28;20136;-78
2022/08/02 01:50:19;;;;;;;12.20;4.30;;;11.40;99.90;;;;;;5032037;28;20069;-78
2022/08/02 01:52:48;;;;;;;15.27;5.17;;;11.40;99.90;;;;;;5052365;28;20540;-79
2022/08/02 01:55:20;;;;;;;7.77;3.93;;;11.40;99.90;;;;;;5033920;28;20048;-78
2022/08/02 01:57:49;;;;;;;6.83;3.40;;;11.40;99.90;;;;;;5051748;28;20049;-79
2022/08/02 02:00:16;;;;;;;11.93;3.70;;;11.30;99.90;;;;;;5034690;28;20071;-79
2022/08/02 02:02:46;;;;;;;9.67;3.70;;;11.30;99.90;;;;;;5043560;28;20041;-79
2022/08/02 02:05:15;;;;;;;8.83;3.63;;;11.30;99.90;;;;;;5033605;28;20045;-78
2022/08/02 02:07:43;;;;;;;10.07;4.10;;;11.30;99.90;;;;;;5051384;28;20045;-78
2022/08/02 02:10:13;;;;;;;11.47;4.60;;;11.30;99.90;;;;;;5050424;28;20075;-78
2022/08/02 02:12:40;;;;;;;11.43;3.87;;;11.40;99.90;;;;;;5035183;28;20489;-78
2022/08/02 02:15:11;;;;;;;13.03;4.63;;;11.40;99.90;;;;;;5050387;28;20544;-79
2022/08/02 02:17:41;;;;;;;10.57;4.10;;;11.40;99.90;;;;;;5048278;28;20124;-78
2022/08/02 02:20:14;;;;;;;8.93;4.13;;;11.40;99.90;;;;;;5029734;28;20084;-80
2022/08/02 02:22:40;;;;;;;11.10;4.47;;;11.40;99.90;;;;;;5044686;28;20055;-79
2022/08/02 02:25:08;;;;;;;15.20;4.33;;;11.40;99.90;;;;;;5033856;28;20028;-78
2022/08/02 02:27:36;;;;;;;9.60;4.07;;;11.30;99.90;;;;;;5049728;28;20511;-78
2022/08/02 02:30:03;;;;;;;9.53;5.50;;;11.40;99.90;;;;;;5035447;28;20451;-78
2022/08/02 02:32:31;;;;;;;8.43;4.07;;;11.40;99.90;;;;;;5046040;28;20076;-78
2022/08/02 02:34:58;;;;;;;10.37;4.40;;;11.40;99.90;;;;;;5032788;28;20036;-78
2022/08/02 02:37:27;;;;;;;8.97;4.10;;;11.40;99.90;;;;;;5049700;28;20064;-78
2022/08/02 02:39:54;;;;;;;11.87;4.70;;;11.40;99.90;;;;;;5015263;28;20172;-78
2022/08/02 02:42:25;;;;;;;6.17;4.20;;;11.40;99.90;;;;;;5047355;28;20091;-77
2022/08/02 02:44:52;;;;;;;12.47;4.23;;;11.40;99.90;;;;;;5016230;28;20045;-78
2022/08/02 02:47:19;;;;;;;12.67;5.10;;;11.40;99.90;;;;;;5033652;28;20128;-78
2022/08/02 02:49:48;;;;;;;11.50;4.40;;;11.40;99.90;;;;;;5049814;28;20037;-78
2022/08/02 02:52:15;;;;;;;9.30;4.40;;;11.40;99.90;;;;;;5027802;28;20033;-78
2022/08/02 02:54:44;;;;;;;10.90;4.30;;;11.40;99.90;;;;;;5033053;28;20037;-78
2022/08/02 02:57:10;;;;;;;15.70;4.60;;;11.40;99.90;;;;;;5033218;28;20051;-78
2022/08/02 02:59:37;;;;;;;10.77;5.00;;;11.50;99.90;;;;;;5013618;28;20045;-78
2022/08/02 03:02:04;;;;;;;9.00;4.80;;;11.40;99.90;;;;;;5031899;28;20565;-78
2022/08/02 03:04:31;;;;;;;12.63;4.87;;;11.50;99.90;;;;;;5049229;28;20036;-78
2022/08/02 03:06:58;;;;;;;11.93;4.93;;;11.50;99.90;;;;;;5031180;28;20128;-78
2022/08/02 03:09:24;;;;;;;10.90;4.83;;;11.50;99.90;;;;;;5034027;28;20053;-78
2022/08/02 03:11:52;;;;;;;13.23;5.20;;;11.40;99.90;;;;;;5033501;28;20045;-78
2022/08/02 03:14:18;;;;;;;13.63;5.10;;;11.40;99.90;;;;;;5035471;28;20045;-78
2022/08/02 03:16:46;;;;;;;12.10;4.13;;;11.40;99.90;;;;;;5032978;28;20412;-78
2022/08/02 03:19:12;;;;;;;16.83;5.23;;;11.50;99.90;;;;;;5017362;28;20033;-78
2022/08/02 03:21:38;;;;;;;15.53;5.60;;;11.50;99.90;;;;;;5048225;28;20110;-78
2022/08/02 03:24:05;;;;;;;11.10;4.67;;;11.50;99.90;;;;;;5029316;28;20531;-78
2022/08/02 03:26:31;;;;;;;13.53;4.73;;;11.50;99.90;;;;;;5030587;28;20037;-79
2022/08/02 03:28:58;;;;;;;15.17;5.77;;;11.50;99.90;;;;;;5034247;28;20488;-77
2022/08/02 03:31:23;;;;;;;12.53;5.63;;;11.60;99.90;;;;;;5033621;28;20084;-78
2022/08/02 03:33:49;;;;;;;18.10;5.70;;;11.60;99.90;;;;;;5025264;28;20087;-79
2022/08/02 03:36:18;;;;;;;14.70;5.37;;;11.60;99.90;;;;;;5016740;28;20128;-78
2022/08/02 03:38:44;;;;;;;13.70;5.60;;;11.60;99.90;;;;;;5041691;28;20044;-78
2022/08/02 03:41:14;;;;;;;13.27;5.70;;;11.70;99.90;;;;;;5050375;28;20048;-78
2022/08/02 03:43:42;;;;;;;13.63;6.37;;;11.70;99.90;;;;;;5031470;28;20044;-78
2022/08/02 03:46:11;;;;;;;11.27;6.73;;;11.70;99.90;;;;;;5030700;28;20424;-79
2022/08/02 03:48:37;;;;;;;19.23;6.63;;;11.70;99.90;;;;;;5031589;28;20051;-78
2022/08/02 03:51:04;;;;;;;16.73;6.70;;;11.70;99.90;;;;;;5048197;28;20044;-78
2022/08/02 03:53:30;;;;;;;13.40;5.83;;;11.70;99.90;;;;;;5047884;28;20049;-77
2022/08/02 03:55:56;;;;;;;13.83;6.23;;;11.80;99.90;;;;;;5030288;28;20140;-78
2022/08/02 03:58:23;;;;;;;13.33;7.20;;;11.80;99.90;;;;;;5031240;28;20045;-78
2022/08/02 04:00:50;;;;;;;16.67;6.53;;;11.80;99.90;;;;;;5033412;28;20114;-78
2022/08/02 04:03:17;;;;;;;16.43;7.70;;;11.90;99.90;;;;;;5046004;28;20041;-77
2022/08/02 04:05:43;;;;;;;16.30;7.30;;;11.90;99.90;;;;;;5016572;28;20591;-78
2022/08/02 04:08:09;;;;;;;14.47;6.63;;;11.90;99.90;;;;;;5021175;28;20043;-78
2022/08/02 04:11:29;;;;;;;12.93;6.80;;;11.90;99.90;;;;;;5049936;28;20045;-78
2022/08/02 04:13:22;;;;;;;19.47;7.53;;;12.00;99.90;;;;;;5052987;28;20051;-79
2022/08/02 04:15:52;;;;;;;15.67;7.30;;;12.00;99.90;;;;;;5037668;28;20036;-77
2022/08/02 04:18:24;;;;;;;18.10;7.37;;;12.00;99.90;;;;;;5036744;28;20037;-77
2022/08/02 04:20:52;;;;;;;17.70;7.10;;;12.10;99.90;;;;;;5035671;28;20523;-77
2022/08/02 04:23:17;;;;;;;12.23;6.33;;;12.10;99.90;;;;;;5011968;28;20041;-78
2022/08/02 04:25:45;;;;;;;14.13;6.07;;;12.10;99.90;;;;;;5054081;28;20067;-77
2022/08/02 04:28:12;;;;;;;13.53;7.00;;;12.20;99.90;;;;;;5036613;28;20043;-78
2022/08/02 04:30:38;;;;;;;13.60;6.50;;;12.20;99.90;;;;;;5036302;28;20041;-78
2022/08/02 04:33:05;;;;;;;13.60;6.90;;;12.30;99.90;;;;;;5033546;28;20055;-79
2022/08/02 04:35:33;;;;;;;14.43;7.30;;;12.30;99.90;;;;;;5053056;28;20137;-79
2022/08/02 04:37:59;;;;;;;20.07;7.17;;;12.30;99.90;;;;;;5012427;28;20076;-78
2022/08/02 04:40:25;;;;;;;12.10;7.10;;;12.30;99.90;;;;;;5052400;28;20492;-78
2022/08/02 04:42:51;;;;;;;14.70;7.60;;;12.40;99.90;;;;;;5036480;28;20140;-77
2022/08/02 04:45:18;;;;;;;15.23;6.57;;;12.40;99.90;;;;;;5019501;28;20384;-77
2022/08/02 04:47:43;;;;;;;16.03;7.47;;;12.40;99.90;;;;;;5053308;28;20037;-78
2022/08/02 04:50:09;;;;;;;13.83;7.37;;;12.40;99.90;;;;;;5021553;28;20039;-78
2022/08/02 04:52:36;;;;;;;16.77;7.30;;;12.40;99.90;;;;;;5041441;28;20064;-77
2022/08/02 04:55:02;;;;;;;15.13;7.47;;;12.50;99.90;;;;;;5025011;28;20042;-78
2022/08/02 05:00:13;;;;;;;23.65;8.52;;;12.50;99.90;;;;;;5049677;28;20060;-78
2022/08/02 05:02:39;;;;;;;25.13;7.93;;;12.60;99.90;;;;;;5049896;28;20488;-78
2022/08/02 05:05:06;;;;;;;16.80;8.23;;;12.60;99.90;;;;;;5040680;28;20052;-77
2022/08/02 05:07:32;;;;;;;14.67;8.03;;;12.70;99.90;;;;;;5017018;28;20028;-77
2022/08/02 05:09:59;;;;;;;18.57;8.20;;;12.70;99.90;;;;;;5039608;28;20059;-77
2022/08/02 05:12:25;;;;;;;20.57;8.07;;;12.70;99.90;;;;;;5048874;28;20124;-78
2022/08/02 05:14:50;;;;;;;15.17;7.73;;;12.70;99.90;;;;;;5050858;28;20123;-78
2022/08/02 05:17:16;;;;;;;14.70;7.63;;;12.80;99.90;;;;;;5025026;28;20041;-77
2022/08/02 05:19:42;;;;;;;20.17;8.93;;;12.80;99.90;;;;;;5019358;28;20748;-77
2022/08/02 05:22:07;;;;;;;22.33;8.23;;;12.80;99.90;;;;;;5045010;28;20033;-77
2022/08/02 05:24:33;;;;;;;18.97;8.87;;;12.90;99.90;;;;;;5048740;28;20428;-77
2022/08/02 05:27:00;;;;;;;14.93;8.33;;;13.00;99.90;;;;;;5033774;28;20419;-78
2022/08/02 05:29:26;;;;;;;12.93;7.93;;;13.00;99.90;;;;;;5049127;28;20049;-78
2022/08/02 05:31:53;;;;;;;15.97;8.53;;;13.10;99.90;;;;;;5032629;28;20037;-78
2022/08/02 05:34:18;;;;;;;18.33;7.73;;;13.10;99.90;;;;;;5048583;28;20051;-77
2022/08/02 05:36:44;;;;;;;14.83;7.50;;;13.20;99.90;;;;;;5034261;28;20037;-78
2022/08/02 05:39:10;;;;;;;12.07;7.37;;;13.30;99.90;;;;;;5029529;28;20080;-78
2022/08/02 05:41:36;;;;;;;14.00;7.97;;;13.40;99.90;;;;;;5048509;28;20061;-77
2022/08/02 05:44:03;;;;;;;15.70;8.20;;;13.50;99.90;;;;;;5049697;28;20037;-76
2022/08/02 05:46:29;;;;;;;16.97;7.40;;;13.60;99.90;;;;;;5049405;28;20140;-79
2022/08/02 05:48:55;;;;;;;17.67;7.53;;;13.60;99.90;;;;;;5038966;28;20041;-78
2022/08/02 05:51:24;;;;;;;14.13;7.53;;;13.80;99.90;;;;;;5047346;28;20056;-79
2022/08/02 05:53:55;;;;;;;17.33;7.07;;;13.90;99.90;;;;;;5027695;28;20044;-79
2022/08/02 05:56:23;;;;;;;17.60;7.50;;;14.00;99.90;;;;;;5039850;28;20488;-78
2022/08/02 05:58:55;;;;;;;12.17;6.00;;;14.00;99.90;;;;;;5027968;28;20141;-79
2022/08/02 06:01:27;;;;;;;13.53;6.17;;;14.20;99.90;;;;;;5007107;28;20403;-78
2022/08/02 06:03:58;;;;;;;13.10;6.10;;;14.30;99.90;;;;;;5044042;28;20041;-78
2022/08/02 06:06:25;;;;;;;13.00;5.93;;;14.40;99.90;;;;;;5047265;28;20068;-78
2022/08/02 06:08:57;;;;;;;11.50;5.90;;;14.50;99.90;;;;;;5045762;28;20040;-80
2022/08/02 06:11:26;;;;;;;15.97;6.00;;;14.70;99.90;;;;;;5029192;28;20160;-78
2022/08/02 06:13:53;;;;;;;13.57;5.33;;;14.80;99.90;;;;;;5034246;28;20037;-78
2022/08/02 06:16:19;;;;;;;12.93;5.43;;;14.90;99.90;;;;;;5050242;28;20553;-78
2022/08/02 06:18:47;;;;;;;12.30;5.87;;;15.00;99.90;;;;;;5030795;28;20033;-78
2022/08/02 06:21:15;;;;;;;14.10;5.13;;;15.10;99.90;;;;;;5009751;28;20412;-78
2022/08/02 06:23:42;;;;;;;11.07;5.00;;;15.20;99.90;;;;;;5035199;28;20036;-80
2022/08/02 06:26:10;;;;;;;11.23;5.53;;;15.20;99.90;;;;;;5034176;28;20443;-79
2022/08/02 06:28:37;;;;;;;13.27;6.30;;;15.30;99.90;;;;;;5027752;28;20046;-79
2022/08/02 06:31:04;;;;;;;12.57;5.40;;;15.40;99.90;;;;;;5048085;28;20045;-79
2022/08/02 06:33:31;;;;;;;11.10;5.43;;;15.50;99.90;;;;;;5030017;28;20052;-78
2022/08/02 06:36:03;;;;;;;12.10;5.90;;;15.60;99.90;;;;;;5032122;28;20077;-78
2022/08/02 06:38:37;;;;;;;11.20;5.27;;;15.70;99.90;;;;;;5029724;28;20503;-79
2022/08/02 06:41:07;;;;;;;12.33;5.07;;;15.80;99.90;;;;;;5021511;28;20033;-79
2022/08/02 06:43:44;;;;;;;10.97;5.17;;;16.00;99.90;;;;;;5048122;28;20091;-82
2022/08/02 06:46:09;;;;;;;10.33;4.87;;;16.10;99.90;;;;;;5028690;28;20033;-78
2022/08/02 06:48:35;;;;;;;15.13;4.60;;;16.20;99.90;;;;;;5030864;28;20415;-79
2022/08/02 06:51:03;;;;;;;11.17;4.90;;;16.30;99.90;;;;;;5035118;28;20049;-77
2022/08/02 06:53:29;;;;;;;10.70;4.40;;;16.40;99.90;;;;;;5040801;28;20462;-77
2022/08/02 06:55:55;;;;;;;12.17;4.30;;;16.40;99.90;;;;;;5040494;28;20040;-79
2022/08/02 06:58:20;;;;;;;13.07;4.60;;;16.60;99.90;;;;;;5030027;28;20041;-78
2022/08/02 07:00:46;;;;;;;10.90;4.27;;;16.60;99.90;;;;;;5046803;28;20080;-79
2022/08/02 07:03:12;;;;;;;9.60;4.10;;;16.70;99.90;;;;;;5007586;28;20123;-77
2022/08/02 07:05:39;;;;;;;9.57;4.20;;;16.80;99.90;;;;;;5015872;28;20034;-78
2022/08/02 07:08:06;;;;;;;13.27;4.40;;;16.80;99.90;;;;;;5019079;28;20383;-79
2022/08/02 07:10:33;;;;;;;8.53;3.87;;;17.00;99.90;;;;;;5024883;28;20049;-76
2022/08/02 07:12:58;;;;;;;10.30;3.70;;;17.10;99.90;;;;;;5045969;28;20385;-76
2022/08/02 07:15:24;;;;;;;16.33;3.70;;;17.20;99.90;;;;;;5039634;28;20075;-78
2022/08/02 07:17:50;;;;;;;9.33;3.40;;;17.30;99.90;;;;;;5043027;28;20124;-77
2022/08/02 07:20:16;;;;;;;10.40;4.00;;;17.50;99.90;;;;;;5046057;28;20112;-77
2022/08/02 07:22:41;;;;;;;10.20;3.47;;;17.60;99.90;;;;;;5015626;28;20076;-76
2022/08/02 07:25:09;;;;;;;8.87;3.00;;;17.80;99.90;;;;;;5042797;28;20033;-78
2022/08/02 07:27:35;;;;;;;8.47;3.00;;;17.90;99.90;;;;;;5022111;28;20490;-77
2022/08/02 07:30:01;;;;;;;9.53;3.17;;;18.00;99.90;;;;;;5044610;28;20064;-78
2022/08/02 07:32:31;;;;;;;8.83;2.77;;;18.00;99.90;;;;;;5023290;28;20049;-78
2022/08/02 07:34:57;;;;;;;6.67;2.43;;;18.00;99.90;;;;;;5010340;28;20381;-78
2022/08/02 07:37:27;;;;;;;10.93;2.60;;;18.00;99.90;;;;;;5021040;28;20581;-78
2022/08/02 07:39:53;;;;;;;9.20;2.87;;;18.00;99.90;;;;;;5039848;28;20136;-77
2022/08/02 07:42:20;;;;;;;7.53;2.80;;;18.00;99.90;;;;;;5036474;28;20217;-78
2022/08/02 07:44:46;;;;;;;6.57;2.20;;;18.10;99.90;;;;;;5028721;28;20040;-80
2022/08/02 07:47:12;;;;;;;8.77;2.17;;;18.20;99.90;;;;;;5029781;28;20661;-79
2022/08/02 07:49:37;;;;;;;8.27;2.40;;;18.20;99.90;;;;;;5029914;28;20037;-78
2022/08/02 07:52:04;;;;;;;6.00;2.00;;;18.40;99.90;;;;;;5015644;28;20052;-79
2022/08/02 07:54:30;;;;;;;4.90;1.70;;;18.50;99.90;;;;;;5015808;28;20040;-80
2022/08/02 07:56:56;;;;;;;6.07;2.03;;;18.60;99.90;;;;;;5046356;28;20056;-79
2022/08/02 07:59:23;;;;;;;7.07;2.13;;;18.60;99.90;;;;;;5046938;28;20048;-82
2022/08/02 08:01:50;;;;;;;3.83;1.50;;;18.70;99.90;;;;;;5023934;28;20041;-80
2022/08/02 08:04:16;;;;;;;6.07;2.27;;;18.80;99.90;;;;;;5045695;28;20056;-80
2022/08/02 08:06:42;;;;;;;5.30;1.87;;;18.90;99.90;;;;;;5030947;28;20063;-78
2022/08/02 08:09:08;;;;;;;6.77;2.37;;;19.10;99.90;;;;;;5027460;28;20041;-78
2022/08/02 08:11:33;;;;;;;6.40;2.10;;;19.20;99.90;;;;;;5030225;28;20588;-78
2022/08/02 08:13:59;;;;;;;8.17;2.20;;;19.30;99.90;;;;;;5045244;28;20048;-82
2022/08/02 08:16:28;;;;;;;4.53;1.90;;;19.50;99.90;;;;;;5047074;28;20064;-80
2022/08/02 08:18:54;;;;;;;5.73;2.37;;;19.50;99.90;;;;;;5044654;28;20707;-78
2022/08/02 08:21:19;;;;;;;7.13;2.13;;;19.70;99.90;;;;;;5033411;28;20052;-80
2022/08/02 08:23:45;;;;;;;6.67;2.33;;;19.80;99.90;;;;;;5017409;28;20124;-80
2022/08/02 08:26:11;;;;;;;8.23;2.43;;;19.90;99.90;;;;;;5029274;28;20045;-77
2022/08/02 08:28:37;;;;;;;6.17;2.40;;;20.00;99.90;;;;;;5028918;28;20139;-78
2022/08/02 08:31:03;;;;;;;7.67;1.90;;;20.10;99.90;;;;;;5050549;28;20492;-80
2022/08/02 08:33:30;;;;;;;9.77;2.20;;;20.30;99.90;;;;;;5032798;28;20099;-78
2022/08/02 08:35:56;;;;;;;7.23;2.03;;;20.50;99.90;;;;;;5050142;28;20466;-78
2022/08/02 08:38:22;;;;;;;6.27;1.80;;;20.60;99.90;;;;;;5051929;28;20037;-81
2022/08/02 08:40:48;;;;;;;8.33;2.23;;;20.80;99.90;;;;;;5032964;28;20045;-78
2022/08/02 08:43:14;;;;;;;8.70;2.10;;;20.90;99.90;;;;;;5013607;28;20134;-79
2022/08/02 08:45:42;;;;;;;4.13;2.10;;;20.90;99.90;;;;;;5051792;28;20069;-78
2022/08/02 08:48:12;;;;;;;5.90;2.27;;;21.00;99.90;;;;;;5064054;28;20048;-81
2022/08/02 08:50:46;;;;;;;5.47;1.70;;;21.00;99.90;;;;;;5019376;28;20037;-80
2022/08/02 08:53:13;;;;;;;3.60;1.50;;;21.10;99.90;;;;;;5031669;28;20146;-83
2022/08/02 08:55:39;;;;;;;9.70;2.07;;;21.20;99.90;;;;;;5030085;28;20051;-82
2022/08/02 08:58:05;;;;;;;5.97;1.93;;;21.40;99.90;;;;;;5041664;28;20051;-80
2022/08/02 09:00:34;;;;;;;5.17;1.93;;;21.50;99.90;;;;;;5013347;28;20053;-79
2022/08/02 09:03:02;;;;;;;3.80;1.53;;;21.60;99.90;;;;;;5045983;28;20132;-79
2022/08/02 09:05:28;;;;;;;5.77;1.60;;;21.70;99.90;;;;;;5030140;28;20132;-82
2022/08/02 09:07:55;;;;;;;4.07;1.50;;;21.90;99.40;;;;;;5021900;28;20049;-77
2022/08/02 09:10:35;;;;;;;5.03;1.67;;;21.90;99.00;;;;;;5030274;28;20045;-80
2022/08/02 09:13:06;;;;;;;5.55;1.80;;;22.10;98.80;;;;;;5026827;28;20064;-80
2022/08/02 09:15:32;;;;;;;5.20;1.70;;;22.20;98.40;;;;;;5045568;28;20056;-77
2022/08/02 09:17:58;;;;;;;4.00;1.55;;;22.40;98.80;;;;;;5015638;28;20049;-80
2022/08/02 09:20:24;;;;;;;5.05;1.50;;;22.70;98.10;;;;;;5024900;28;20041;-80
2022/08/02 09:23:06;;;;;;;5.38;1.58;;;22.80;97.50;;;;;;5035228;28;20079;-80
2022/08/02 09:25:32;;;;;;;9.02;2.03;;;22.90;96.00;;;;;;5050583;28;20063;-82
2022/08/02 09:27:58;;;;;;;3.78;1.40;;;23.00;96.10;;;;;;5035472;28;20038;-82
2022/08/02 09:30:25;;;;;;;3.75;1.65;;;23.20;94.90;;;;;;5033038;28;20593;-83
2022/08/02 09:32:51;;;;;;;5.25;1.60;;;23.40;94.90;;;;;;5046203;28;20049;-80
2022/08/02 09:35:33;;;;;;;5.28;1.50;;;23.60;95.20;;;;;;5028955;28;20049;-80
2022/08/02 09:38:09;;;;;;;5.10;1.85;;;23.70;95.50;;;;;;5026809;28;20504;-79
2022/08/02 09:40:36;;;;;;;3.80;1.77;;;24.00;94.40;;;;;;5046615;28;20051;-79
2022/08/02 09:43:02;;;;;;;6.35;1.90;;;24.20;93.70;;;;;;5018393;28;20045;-81
2022/08/02 09:45:31;;;;;;;4.13;1.65;;;24.30;93.60;;;;;;5019311;28;20091;-81
2022/08/02 09:47:57;;;;;;;5.60;2.00;;;24.30;94.00;;;;;;5037134;28;20107;-82
2022/08/02 09:50:22;;;;;;;5.80;2.20;;;24.40;93.50;;;;;;5047755;28;20097;-81
2022/08/02 09:52:48;;;;;;;6.45;2.28;;;24.40;93.10;;;;;;5050746;28;20079;-80
2022/08/02 09:55:15;;;;;;;6.50;2.03;;;24.60;93.40;;;;;;5015688;28;20033;-80
2022/08/02 09:57:41;;;;;;;6.60;2.00;;;24.80;93.20;;;;;;5017102;28;20449;-82
2022/08/02 10:00:10;;;;;;;6.43;2.30;;;25.20;93.20;;;;;;5015635;28;20037;-82
2022/08/02 10:02:38;;;;;;;5.43;2.33;;;25.80;92.80;;;;;;5031976;28;20550;-80
2022/08/02 10:05:05;;;;;;;5.05;2.22;;;26.50;91.90;;;;;;5048385;28;20488;-83
2022/08/02 10:07:31;;;;;;;8.30;2.63;;;26.60;91.20;;;;;;5048881;28;20073;-80
2022/08/02 10:09:57;;;;;;;7.82;2.90;;;26.60;91.10;;;;;;5045821;28;20545;-80
2022/08/02 10:12:25;;;;;;;7.18;2.63;;;26.70;91.60;;;;;;5031316;28;20045;-81
2022/08/02 10:14:51;;;;;;;4.55;2.38;;;26.70;90.90;;;;;;5041431;28;20040;-77
2022/08/02 10:17:17;;;;;;;8.27;2.75;;;26.70;91.60;;;;;;5032955;28;20045;-77
2022/08/02 10:19:44;;;;;;;5.07;2.90;;;26.90;92.00;;;;;;5031270;28;20683;-78
2022/08/02 10:22:12;;;;;;;6.63;3.28;;;26.90;91.30;;;;;;5021124;28;20047;-79
2022/08/02 10:24:39;;;;;;;6.85;2.40;;;26.90;91.40;;;;;;5050086;28;20404;-79
2022/08/02 10:27:12;;;;;;;6.05;2.65;;;27.00;91.70;;;;;;5025463;28;20051;-79
2022/08/02 10:29:41;;;;;;;5.70;2.40;;;27.10;92.00;;;;;;5028774;28;20123;-78
2022/08/02 10:32:13;;;;;;;5.43;2.60;;;27.30;92.40;;;;;;5048891;28;20049;-81
2022/08/02 10:34:43;;;;;;;6.43;2.70;;;27.70;92.00;;;;;;5026339;28;20051;-76
2022/08/02 10:37:12;;;;;;;6.90;2.70;;;27.60;91.10;;;;;;5043709;28;20488;-79
2022/08/02 10:39:38;;;;;;;6.30;2.53;;;27.60;91.40;;;;;;5023739;28;20067;-80
2022/08/02 10:42:04;;;;;;;6.63;2.90;;;27.60;92.00;;;;;;5029377;28;20051;-80
2022/08/02 10:44:31;;;;;;;4.28;2.33;;;27.70;90.90;;;;;;5032004;28;20041;-80
2022/08/02 10:47:28;;;;;;;4.75;2.50;;;27.80;91.50;;;;;;5023525;28;20049;-79
2022/08/02 10:49:56;;;;;;;6.65;2.28;;;28.30;92.20;;;;;;4949950;28;20057;-79
2022/08/02 10:52:22;;;;;;;5.28;2.13;;;28.60;92.70;;;;;;5023711;28;20053;-80
2022/08/02 10:54:53;;;;;;;4.50;2.20;;;28.70;91.00;;;;;;5013426;28;20056;-79
2022/08/02 10:57:21;;;;;;;3.80;2.30;;;28.90;89.70;;;;;;5036241;28;20037;-81
2022/08/02 10:59:48;;;;;;;7.05;2.42;;;29.00;87.90;;;;;;5041736;28;20155;-79
2022/08/02 11:02:34;;;;;;;6.28;2.90;;;28.80;86.70;;;;;;5030615;28;20048;-81
2022/08/02 11:05:12;;;;;;;5.75;2.25;;;28.80;86.70;;;;;;5021823;28;20052;-80
2022/08/02 11:07:39;;;;;;;7.20;2.85;;;28.80;88.00;;;;;;5027249;28;20507;-80
2022/08/02 11:10:32;;;;;;;5.10;2.80;;;28.70;84.60;;;;;;5047310;28;20124;-80
2022/08/02 11:13:02;;;;;;;5.65;2.80;;;28.40;85.90;;;;;;5045056;28;20665;-80
2022/08/02 11:15:28;;;;;;;6.65;2.75;;;28.50;90.10;;;;;;5047497;28;20048;-78
2022/08/02 11:18:00;;;;;;;7.18;2.72;;;28.60;89.00;;;;;;5008462;28;20121;-80
2022/08/02 11:20:26;;;;;;;3.65;2.20;;;28.60;86.30;;;;;;5025677;28;20057;-77
2022/08/02 11:22:53;;;;;;;4.15;2.50;;;28.60;86.40;;;;;;5024455;28;20090;-77
2022/08/02 11:25:32;;;;;;;5.15;2.40;;;28.70;87.30;;;;;;5020295;28;20085;-79
2022/08/02 11:28:06;;;;;;;4.75;2.60;;;28.50;86.30;;;;;;5023932;28;20069;-80
2022/08/02 11:30:33;;;;;;;4.03;2.60;;;28.40;86.30;;;;;;5020845;28;20037;-82
2022/08/02 11:33:00;;;;;;;7.28;2.92;;;28.50;88.00;;;;;;5043816;28;20524;-80
2022/08/02 11:35:31;;;;;;;4.90;2.10;;;28.50;87.60;;;;;;5028799;28;20061;-80
2022/08/02 11:38:10;;;;;;;5.50;2.67;;;28.50;89.80;;;;;;5015769;28;20041;-78
2022/08/02 11:40:37;;;;;;;4.53;2.40;;;28.70;89.00;;;;;;5042944;28;20048;-80
2022/08/02 11:43:03;;;;;;;4.03;2.13;;;28.80;87.20;;;;;;5028497;28;20492;-80
2022/08/02 11:45:28;;;;;;;4.50;2.35;;;28.60;86.80;;;;;;5028942;28;20041;-81
2022/08/02 11:47:54;;;;;;;4.72;2.15;;;28.30;86.50;;;;;;5016252;28;20045;-78
2022/08/02 11:50:25;;;;;;;3.63;2.00;;;28.00;87.60;;;;;;5046285;28;20037;-81
2022/08/02 11:52:54;;;;;;;6.07;1.80;;;27.70;89.50;;;;;;5028477;28;20045;-81
2022/08/02 11:55:27;;;;;;;3.63;1.80;;;28.20;90.10;;;;;;5027830;28;20049;-80
2022/08/02 11:57:57;;;;;;;3.60;1.60;;;28.70;88.50;;;;;;5011045;28;20041;-80
2022/08/02 12:00:23;;;;;;;3.15;1.70;;;28.90;87.20;;;;;;5041053;28;20123;-83
2022/08/02 12:02:48;;;;;;;5.32;1.73;;;28.90;84.20;;;;;;5012283;28;20141;-80
2022/08/02 12:05:17;;;;;;;3.00;1.70;;;28.70;84.00;;;;;;5028971;28;20041;-80
2022/08/02 12:07:45;;;;;;;4.55;2.25;;;28.60;83.90;;;;;;5041433;28;20072;-81
2022/08/02 12:10:13;;;;;;;3.60;1.50;;;28.60;85.70;;;;;;5021688;28;20079;-80
2022/08/02 12:12:49;;;;;;;3.72;1.80;;;28.80;84.80;;;;;;5009504;28;20037;-80
2022/08/02 12:15:28;;;;;;;2.85;1.45;;;28.70;85.50;;;;;;5041067;28;20451;-80
2022/08/02 12:20:38;;;;;;;3.05;1.70;;;28.40;87.00;;;;;;5032050;28;20094;-79
2022/08/02 12:23:05;;;;;;;6.50;2.30;;;28.30;87.30;;;;;;5024339;28;20045;-78
2022/08/02 12:25:31;;;;;;;3.50;2.05;;;28.20;88.60;;;;;;5039716;28;20703;-81
2022/08/02 12:28:13;;;;;;;2.72;2.05;;;28.10;89.40;;;;;;5040090;28;20037;-77
2022/08/02 12:30:49;;;;;;;3.33;2.00;;;28.10;90.70;;;;;;5032450;28;20115;-79
2022/08/02 12:33:15;;;;;;;3.08;2.13;;;28.30;90.80;;;;;;5028201;28;20049;-77
2022/08/02 12:35:41;;;;;;;4.65;2.30;;;28.50;90.40;;;;;;5045344;28;20051;-79
2022/08/02 12:38:10;;;;;;;4.65;1.85;;;28.60;90.40;;;;;;5008825;28;20059;-79
2022/08/02 12:40:36;;;;;;;5.30;1.90;;;28.60;88.90;;;;;;5029710;28;20071;-81
2022/08/02 12:43:03;;;;;;;3.35;1.90;;;28.30;86.30;;;;;;5026437;28;20048;-78
2022/08/02 12:45:31;;;;;;;2.83;1.90;;;28.20;86.60;;;;;;5047417;28;20132;-80
2022/08/02 12:47:59;;;;;;;4.35;2.20;;;28.00;87.90;;;;;;5029392;28;20037;-78
2022/08/02 12:50:28;;;;;;;5.70;2.83;;;27.90;89.70;;;;;;5031187;28;20045;-81
2022/08/02 12:53:03;;;;;;;5.70;2.95;;;27.90;90.30;;;;;;5029411;28;20113;-80